Time;durP1;ratioP1;P1;durP2;ratioP2;P2;SDS_P1;SDS_P2;PMS_P1;PMS_P2;Temp;Humidity;BMP_temperature;BMP_pressure;BME280_temperature;BME280_humidity;BME280_pressure;Samples;Min_cycle;Max_cycle;Signal;HPM_P1;HPM_P2
2023/12/26 00:00:13;;;;;;;1.80;0.80;;;;;;;;;;681064;29;1918;-82
2023/12/26 00:00:33;;;;;;;2.72;1.17;;;;;;;;;;683633;28;884;-83
2023/12/26 00:00:53;;;;;;;2.30;1.10;;;;;;;;;;679989;29;1129;-81
2023/12/26 00:01:14;;;;;;;2.10;1.00;;;;;;;;;;679908;29;4411;-81
2023/12/26 00:01:37;;;;;;;2.10;0.93;;;;;;;;;;678730;29;1270;-82
2023/12/26 00:01:58;;;;;;;3.35;1.20;;;;;;;;;;681545;29;1334;-83
2023/12/26 00:02:23;;;;;;;2.72;1.00;;;;;;;;;;687583;28;1281;-83
2023/12/26 00:02:44;;;;;;;1.88;0.90;;;;;;;;;;684498;28;1548;-83
2023/12/26 00:03:07;;;;;;;2.08;1.08;;;;;;;;;;680738;29;1368;-83
2023/12/26 00:03:28;;;;;;;1.98;0.80;;;;;;;;;;679680;29;1404;-84
2023/12/26 00:03:48;;;;;;;1.97;0.70;;;;;;;;;;680639;29;881;-83
2023/12/26 00:04:12;;;;;;;2.75;1.10;;;;;;;;;;670929;29;4475;-81
2023/12/26 00:04:36;;;;;;;2.22;0.93;;;;;;;;;;683283;28;1210;-80
2023/12/26 00:04:59;;;;;;;3.47;1.33;;;;;;;;;;683421;29;1388;-83
2023/12/26 00:05:23;;;;;;;3.20;1.25;;;;;;;;;;684155;28;1420;-81
2023/12/26 00:05:46;;;;;;;3.55;1.40;;;;;;;;;;681703;28;1153;-83
2023/12/26 00:06:10;;;;;;;3.90;1.50;;;;;;;;;;683073;29;1281;-83
2023/12/26 00:06:31;;;;;;;3.45;1.45;;;;;;;;;;679928;29;1295;-83
2023/12/26 00:07:01;;;;;;;2.60;1.10;;;;;;;;;;682947;28;1369;-81
2023/12/26 00:07:23;;;;;;;2.10;0.95;;;;;;;;;;677141;29;5461;-82
2023/12/26 00:07:48;;;;;;;2.42;1.10;;;;;;;;;;677423;29;1343;-81
2023/12/26 00:08:09;;;;;;;3.03;1.13;;;;;;;;;;680054;29;1279;-84
2023/12/26 00:08:31;;;;;;;4.20;1.20;;;;;;;;;;678012;29;1178;-83
2023/12/26 00:08:53;;;;;;;3.35;1.20;;;;;;;;;;683031;29;1309;-81
2023/12/26 00:09:14;;;;;;;3.80;1.40;;;;;;;;;;680128;28;1302;-82
2023/12/26 00:09:41;;;;;;;4.15;1.70;;;;;;;;;;680098;28;1230;-81
2023/12/26 00:10:02;;;;;;;4.63;1.88;;;;;;;;;;678274;29;4364;-82
2023/12/26 00:10:23;;;;;;;4.53;1.85;;;;;;;;;;676899;29;1393;-82
2023/12/26 00:10:43;;;;;;;2.38;1.00;;;;;;;;;;679623;29;1099;-82
2023/12/26 00:11:07;;;;;;;2.60;1.00;;;;;;;;;;682474;29;1488;-83
2023/12/26 00:11:34;;;;;;;2.85;1.17;;;;;;;;;;679715;28;961;-83
2023/12/26 00:11:55;;;;;;;2.35;1.13;;;;;;;;;;682713;29;831;-82
2023/12/26 00:12:18;;;;;;;2.25;0.95;;;;;;;;;;679670;29;1157;-80
2023/12/26 00:12:39;;;;;;;2.53;0.70;;;;;;;;;;681686;29;1096;-82
2023/12/26 00:13:00;;;;;;;1.37;0.60;;;;;;;;;;680608;29;1438;-82
2023/12/26 00:13:21;;;;;;;1.75;0.80;;;;;;;;;;679977;29;4585;-81
2023/12/26 00:13:42;;;;;;;2.35;0.80;;;;;;;;;;681859;29;1368;-83
2023/12/26 00:14:02;;;;;;;2.15;0.90;;;;;;;;;;682310;28;1352;-82
2023/12/26 00:14:23;;;;;;;2.47;1.00;;;;;;;;;;682473;29;1349;-82
2023/12/26 00:14:43;;;;;;;2.38;1.02;;;;;;;;;;683114;28;1277;-83
2023/12/26 00:15:04;;;;;;;4.17;1.67;;;;;;;;;;681103;29;1232;-82
2023/12/26 00:15:25;;;;;;;4.45;1.95;;;;;;;;;;683617;28;1087;-83
2023/12/26 00:15:45;;;;;;;2.03;0.97;;;;;;;;;;678075;29;1655;-82
2023/12/26 00:16:06;;;;;;;1.33;0.75;;;;;;;;;;678308;29;4328;-81
2023/12/26 00:16:28;;;;;;;1.93;1.00;;;;;;;;;;680833;29;770;-82
2023/12/26 00:16:51;;;;;;;2.60;0.90;;;;;;;;;;681355;28;1254;-81
2023/12/26 00:17:12;;;;;;;1.33;0.55;;;;;;;;;;685682;28;1425;-81
2023/12/26 00:17:32;;;;;;;2.08;0.50;;;;;;;;;;684306;28;1139;-81
2023/12/26 00:17:53;;;;;;;1.33;0.60;;;;;;;;;;677979;29;1270;-82
2023/12/26 00:18:13;;;;;;;2.35;0.70;;;;;;;;;;679042;29;1209;-81
2023/12/26 00:18:33;;;;;;;1.20;0.60;;;;;;;;;;678959;29;1259;-82
2023/12/26 00:18:54;;;;;;;1.85;0.70;;;;;;;;;;680258;29;940;-83
2023/12/26 00:19:21;;;;;;;1.92;0.60;;;;;;;;;;677770;29;4951;-82
2023/12/26 00:19:44;;;;;;;1.27;0.60;;;;;;;;;;681534;29;1004;-80
2023/12/26 00:20:07;;;;;;;1.65;0.70;;;;;;;;;;684635;28;1973;-81
2023/12/26 00:20:28;;;;;;;3.15;1.00;;;;;;;;;;685468;28;1308;-82
2023/12/26 00:20:51;;;;;;;1.70;0.90;;;;;;;;;;683018;29;1407;-81
2023/12/26 00:21:14;;;;;;;1.88;1.00;;;;;;;;;;680506;29;1182;-80
2023/12/26 00:21:36;;;;;;;3.20;1.00;;;;;;;;;;680948;29;1430;-82
2023/12/26 00:21:56;;;;;;;4.38;1.67;;;;;;;;;;687902;28;1392;-83
2023/12/26 00:22:16;;;;;;;3.72;1.65;;;;;;;;;;684567;28;5468;-80
2023/12/26 00:22:37;;;;;;;3.60;1.20;;;;;;;;;;684996;28;1145;-82
2023/12/26 00:22:57;;;;;;;3.22;1.10;;;;;;;;;;680402;29;1336;-80
2023/12/26 00:23:18;;;;;;;3.07;1.27;;;;;;;;;;677438;29;818;-81
2023/12/26 00:23:41;;;;;;;3.40;1.35;;;;;;;;;;679176;29;3994;-81
2023/12/26 00:24:02;;;;;;;1.80;0.87;;;;;;;;;;679839;29;937;-81
2023/12/26 00:24:22;;;;;;;2.15;0.98;;;;;;;;;;679534;29;878;-83
2023/12/26 00:24:43;;;;;;;2.67;1.10;;;;;;;;;;679157;29;1275;-83
2023/12/26 00:25:03;;;;;;;2.55;1.15;;;;;;;;;;676513;29;5390;-80
2023/12/26 00:25:23;;;;;;;2.07;1.10;;;;;;;;;;680615;29;1032;-81
2023/12/26 00:25:44;;;;;;;2.28;1.13;;;;;;;;;;681861;29;1238;-82
2023/12/26 00:26:08;;;;;;;2.13;1.05;;;;;;;;;;680124;29;1210;-82
2023/12/26 00:26:29;;;;;;;2.47;1.10;;;;;;;;;;678040;29;1416;-82
2023/12/26 00:26:53;;;;;;;3.35;1.13;;;;;;;;;;680103;29;1652;-80
2023/12/26 00:27:14;;;;;;;2.30;1.00;;;;;;;;;;681887;29;1406;-83
2023/12/26 00:27:45;;;;;;;2.90;0.98;;;;;;;;;;679088;29;1301;-80
2023/12/26 00:28:06;;;;;;;2.88;1.20;;;;;;;;;;679393;29;4291;-80
2023/12/26 00:28:29;;;;;;;4.37;1.30;;;;;;;;;;682091;29;1419;-81
2023/12/26 00:28:50;;;;;;;3.08;1.25;;;;;;;;;;682385;29;1207;-81
2023/12/26 00:29:10;;;;;;;2.83;1.20;;;;;;;;;;682691;29;838;-81
2023/12/26 00:29:31;;;;;;;3.30;1.47;;;;;;;;;;682429;28;1256;-80
2023/12/26 00:29:51;;;;;;;3.20;1.33;;;;;;;;;;684710;28;830;-82
2023/12/26 00:30:12;;;;;;;2.57;1.10;;;;;;;;;;687987;28;1227;-82
2023/12/26 00:30:33;;;;;;;2.42;1.27;;;;;;;;;;680873;29;1476;-84
2023/12/26 00:30:59;;;;;;;3.28;1.00;;;;;;;;;;684105;28;1271;-80
2023/12/26 00:31:20;;;;;;;1.52;0.90;;;;;;;;;;682088;28;4549;-81
2023/12/26 00:31:45;;;;;;;2.53;1.20;;;;;;;;;;681509;28;1513;-82
2023/12/26 00:32:06;;;;;;;2.22;1.20;;;;;;;;;;682877;28;1411;-79
2023/12/26 00:32:26;;;;;;;2.43;1.23;;;;;;;;;;681702;29;977;-80
2023/12/26 00:32:47;;;;;;;1.70;0.80;;;;;;;;;;681250;29;1192;-82
2023/12/26 00:33:07;;;;;;;1.17;0.60;;;;;;;;;;682609;28;1476;-80
2023/12/26 00:33:27;;;;;;;1.17;0.63;;;;;;;;;;681512;28;1514;-82
2023/12/26 00:33:57;;;;;;;1.33;0.70;;;;;;;;;;682304;29;1430;-81
2023/12/26 00:34:20;;;;;;;1.95;0.70;;;;;;;;;;680108;28;4433;-80
2023/12/26 00:34:43;;;;;;;2.58;0.90;;;;;;;;;;681700;28;997;-81
2023/12/26 00:35:04;;;;;;;2.08;0.80;;;;;;;;;;683136;29;879;-81
2023/12/26 00:35:34;;;;;;;2.17;1.20;;;;;;;;;;686075;28;1208;-81
2023/12/26 00:36:01;;;;;;;1.53;0.80;;;;;;;;;;688188;28;1446;-81
2023/12/26 00:36:29;;;;;;;0.98;0.50;;;;;;;;;;683652;28;1296;-83
2023/12/26 00:36:50;;;;;;;2.25;0.70;;;;;;;;;;684785;28;969;-82
2023/12/26 00:37:10;;;;;;;2.45;0.88;;;;;;;;;;684787;28;4311;-82
2023/12/26 00:37:32;;;;;;;1.87;0.87;;;;;;;;;;681777;28;1386;-83
2023/12/26 00:37:57;;;;;;;1.45;0.70;;;;;;;;;;682625;28;1300;-84
2023/12/26 00:38:19;;;;;;;2.17;0.80;;;;;;;;;;680451;29;850;-79
2023/12/26 00:38:39;;;;;;;2.00;1.00;;;;;;;;;;682417;29;1285;-82
2023/12/26 00:39:00;;;;;;;2.97;1.17;;;;;;;;;;679942;29;1211;-83
2023/12/26 00:39:23;;;;;;;3.07;1.13;;;;;;;;;;680769;29;881;-81
2023/12/26 00:39:52;;;;;;;2.58;1.15;;;;;;;;;;679674;29;1351;-80
2023/12/26 00:40:20;;;;;;;2.78;1.20;;;;;;;;;;677835;29;4315;-84
2023/12/26 00:40:41;;;;;;;1.60;0.77;;;;;;;;;;677210;29;1353;-82
2023/12/26 00:41:04;;;;;;;2.00;1.00;;;;;;;;;;679930;29;1425;-82
2023/12/26 00:41:30;;;;;;;2.85;1.23;;;;;;;;;;680439;29;1390;-82
2023/12/26 00:41:51;;;;;;;3.00;1.38;;;;;;;;;;677633;29;1284;-82
2023/12/26 00:42:11;;;;;;;2.72;1.20;;;;;;;;;;678562;29;5510;-82
2023/12/26 00:42:44;;;;;;;2.08;1.08;;;;;;;;;;679130;29;1284;-82
2023/12/26 00:43:09;;;;;;;2.50;0.95;;;;;;;;;;682249;28;4279;-82
2023/12/26 00:43:35;;;;;;;3.05;0.80;;;;;;;;;;682683;29;1268;-86
2023/12/26 00:43:55;;;;;;;3.17;1.20;;;;;;;;;;681375;29;1201;-82
2023/12/26 00:44:18;;;;;;;2.70;1.23;;;;;;;;;;680136;29;1268;-82
2023/12/26 00:44:39;;;;;;;3.20;0.93;;;;;;;;;;679406;29;926;-82
2023/12/26 00:45:03;;;;;;;2.95;0.90;;;;;;;;;;680524;29;922;-81
2023/12/26 00:45:27;;;;;;;2.15;1.10;;;;;;;;;;680352;29;1289;-83
2023/12/26 00:45:52;;;;;;;3.50;1.40;;;;;;;;;;679923;29;984;-83
2023/12/26 00:46:20;;;;;;;3.97;1.92;;;;;;;;;;681312;28;4351;-80
2023/12/26 00:46:40;;;;;;;4.72;2.10;;;;;;;;;;681957;28;1237;-82
2023/12/26 00:47:03;;;;;;;3.13;1.40;;;;;;;;;;680773;29;842;-83
2023/12/26 00:47:23;;;;;;;2.97;1.40;;;;;;;;;;679960;29;1413;-82
2023/12/26 00:47:44;;;;;;;3.67;1.50;;;;;;;;;;680362;29;1433;-81
2023/12/26 00:48:07;;;;;;;3.23;1.23;;;;;;;;;;680081;29;1087;-80
2023/12/26 00:48:27;;;;;;;2.67;1.02;;;;;;;;;;676985;29;1602;-81
2023/12/26 00:48:48;;;;;;;3.77;1.57;;;;;;;;;;676629;29;1199;-82
2023/12/26 00:49:10;;;;;;;4.60;2.33;;;;;;;;;;679505;29;4317;-81
2023/12/26 00:49:33;;;;;;;4.00;2.13;;;;;;;;;;683914;28;1473;-83
2023/12/26 00:49:59;;;;;;;4.10;1.90;;;;;;;;;;683057;29;818;-81
2023/12/26 00:50:19;;;;;;;3.80;1.90;;;;;;;;;;680139;29;1397;-81
2023/12/26 00:50:41;;;;;;;3.30;1.50;;;;;;;;;;677027;29;1236;-83
2023/12/26 00:51:03;;;;;;;2.30;1.02;;;;;;;;;;680561;29;1268;-82
2023/12/26 00:51:23;;;;;;;1.98;1.08;;;;;;;;;;678750;29;1479;-83
2023/12/26 00:51:43;;;;;;;2.97;1.20;;;;;;;;;;678069;29;1252;-82
2023/12/26 00:52:07;;;;;;;4.00;1.57;;;;;;;;;;679291;29;4474;-81
2023/12/26 00:52:35;;;;;;;2.67;1.33;;;;;;;;;;678819;29;1403;-84
2023/12/26 00:52:55;;;;;;;2.35;1.20;;;;;;;;;;679342;29;1400;-82
2023/12/26 00:53:18;;;;;;;3.90;1.40;;;;;;;;;;679893;29;968;-81
2023/12/26 00:53:41;;;;;;;3.75;1.00;;;;;;;;;;678760;29;1301;-82
2023/12/26 00:54:02;;;;;;;2.63;1.30;;;;;;;;;;680522;29;1280;-81
2023/12/26 00:54:25;;;;;;;3.30;1.30;;;;;;;;;;681774;29;893;-80
2023/12/26 00:54:56;;;;;;;2.95;1.20;;;;;;;;;;681865;29;1420;-80
2023/12/26 00:55:17;;;;;;;3.30;1.40;;;;;;;;;;681778;29;4296;-82
2023/12/26 00:55:37;;;;;;;2.90;1.30;;;;;;;;;;681205;29;1243;-82
2023/12/26 00:55:58;;;;;;;2.38;1.20;;;;;;;;;;680419;29;984;-81
2023/12/26 00:56:27;;;;;;;2.77;1.23;;;;;;;;;;675642;29;1608;-83
2023/12/26 00:56:54;;;;;;;2.30;1.00;;;;;;;;;;679965;29;1347;-80
2023/12/26 00:57:21;;;;;;;3.17;1.38;;;;;;;;;;678232;29;929;-82
2023/12/26 00:57:53;;;;;;;3.88;1.35;;;;;;;;;;682262;29;1436;-81
2023/12/26 00:58:19;;;;;;;2.70;1.20;;;;;;;;;;684735;28;4220;-81
2023/12/26 00:58:49;;;;;;;2.33;0.93;;;;;;;;;;686489;28;1397;-81
2023/12/26 00:59:10;;;;;;;3.03;1.55;;;;;;;;;;683398;29;1276;-82
2023/12/26 00:59:36;;;;;;;4.60;1.83;;;;;;;;;;680532;28;1379;-83
2023/12/26 00:59:59;;;;;;;2.63;1.13;;;;;;;;;;680136;29;1903;-82
2023/12/26 01:00:22;;;;;;;2.22;1.00;;;;;;;;;;677613;29;1420;-81
2023/12/26 01:00:45;;;;;;;2.70;1.13;;;;;;;;;;679500;29;1376;-82
2023/12/26 01:01:08;;;;;;;2.53;1.33;;;;;;;;;;675871;28;4327;-83
2023/12/26 01:01:29;;;;;;;1.45;0.90;;;;;;;;;;686322;28;953;-82
2023/12/26 01:01:49;;;;;;;3.07;1.30;;;;;;;;;;684540;28;1327;-82
2023/12/26 01:02:10;;;;;;;5.18;2.58;;;;;;;;;;682510;29;1221;-81
2023/12/26 01:02:33;;;;;;;6.90;3.00;;;;;;;;;;685036;28;1426;-82
2023/12/26 01:02:53;;;;;;;6.32;2.67;;;;;;;;;;682646;29;924;-82
2023/12/26 01:03:15;;;;;;;5.15;2.35;;;;;;;;;;684337;28;1516;-80
2023/12/26 01:03:36;;;;;;;4.40;1.88;;;;;;;;;;679647;29;1410;-80
2023/12/26 01:03:58;;;;;;;4.53;1.90;;;;;;;;;;682708;28;1345;-81
2023/12/26 01:04:21;;;;;;;6.38;2.70;;;;;;;;;;681541;29;4296;-81
2023/12/26 01:04:41;;;;;;;6.80;3.17;;;;;;;;;;681699;28;1033;-81
2023/12/26 01:05:02;;;;;;;5.60;2.80;;;;;;;;;;679819;29;1385;-83
2023/12/26 01:05:23;;;;;;;4.72;2.10;;;;;;;;;;680274;29;881;-83
2023/12/26 01:05:43;;;;;;;5.47;2.40;;;;;;;;;;682215;28;1244;-82
2023/12/26 01:06:06;;;;;;;4.70;2.20;;;;;;;;;;680167;29;817;-81
2023/12/26 01:06:29;;;;;;;4.22;1.80;;;;;;;;;;680996;29;1427;-80
2023/12/26 01:06:54;;;;;;;2.20;1.10;;;;;;;;;;680639;29;1166;-81
2023/12/26 01:07:15;;;;;;;2.20;0.93;;;;;;;;;;678888;29;4299;-84
2023/12/26 01:07:35;;;;;;;1.90;0.97;;;;;;;;;;681695;28;1423;-82
2023/12/26 01:07:57;;;;;;;1.73;1.00;;;;;;;;;;683051;29;1382;-82
2023/12/26 01:08:18;;;;;;;2.47;1.00;;;;;;;;;;681823;28;896;-84
2023/12/26 01:08:41;;;;;;;2.47;1.30;;;;;;;;;;681793;28;1566;-82
2023/12/26 01:09:02;;;;;;;2.35;1.20;;;;;;;;;;685530;28;1426;-82
2023/12/26 01:09:25;;;;;;;2.35;1.20;;;;;;;;;;682787;29;996;-84
2023/12/26 01:09:48;;;;;;;2.63;1.38;;;;;;;;;;682224;28;1027;-82
2023/12/26 01:10:09;;;;;;;2.53;1.20;;;;;;;;;;682468;29;4284;-81
2023/12/26 01:10:33;;;;;;;2.72;1.10;;;;;;;;;;682830;29;1288;-79
2023/12/26 01:10:57;;;;;;;1.92;0.90;;;;;;;;;;681112;29;1420;-83
2023/12/26 01:11:17;;;;;;;3.17;1.27;;;;;;;;;;683170;29;1315;-83
2023/12/26 01:11:38;;;;;;;4.07;1.40;;;;;;;;;;678528;29;1351;-82
2023/12/26 01:11:58;;;;;;;3.45;1.20;;;;;;;;;;675694;29;1400;-82
2023/12/26 01:12:19;;;;;;;3.23;1.30;;;;;;;;;;678760;29;1475;-82
2023/12/26 01:12:39;;;;;;;2.55;1.10;;;;;;;;;;674951;29;1284;-81
2023/12/26 01:13:06;;;;;;;2.10;1.13;;;;;;;;;;679217;29;4510;-84
2023/12/26 01:13:34;;;;;;;2.83;1.30;;;;;;;;;;680123;29;1416;-83
2023/12/26 01:13:54;;;;;;;1.45;0.82;;;;;;;;;;674157;29;1015;-85
2023/12/26 01:14:26;;;;;;;1.92;0.90;;;;;;;;;;674618;29;1063;-82
2023/12/26 01:14:46;;;;;;;2.60;1.00;;;;;;;;;;672666;29;1381;-83
2023/12/26 01:15:09;;;;;;;1.50;0.70;;;;;;;;;;675603;29;1430;-81
2023/12/26 01:15:33;;;;;;;1.90;0.70;;;;;;;;;;679028;29;1284;-82
2023/12/26 01:15:53;;;;;;;1.92;0.80;;;;;;;;;;678035;29;3636;-83
2023/12/26 01:16:14;;;;;;;1.85;0.98;;;;;;;;;;681638;28;4387;-83
2023/12/26 01:16:39;;;;;;;2.63;1.10;;;;;;;;;;678127;29;1423;-82
2023/12/26 01:16:59;;;;;;;1.90;0.90;;;;;;;;;;677180;29;1289;-83
2023/12/26 01:17:20;;;;;;;2.58;0.90;;;;;;;;;;674515;29;1203;-81
2023/12/26 01:17:40;;;;;;;3.50;1.00;;;;;;;;;;679067;29;1313;-82
2023/12/26 01:18:01;;;;;;;2.30;0.90;;;;;;;;;;675868;29;1464;-81
2023/12/26 01:18:21;;;;;;;1.20;0.70;;;;;;;;;;677806;29;1226;-82
2023/12/26 01:18:45;;;;;;;1.73;0.75;;;;;;;;;;677767;29;1180;-81
2023/12/26 01:19:08;;;;;;;1.63;0.70;;;;;;;;;;678952;28;4311;-82
2023/12/26 01:19:29;;;;;;;1.60;0.70;;;;;;;;;;681781;28;1198;-83
2023/12/26 01:19:49;;;;;;;1.42;0.73;;;;;;;;;;678317;29;3167;-83
2023/12/26 01:20:13;;;;;;;1.48;0.70;;;;;;;;;;682158;28;1962;-82
2023/12/26 01:20:40;;;;;;;1.48;0.70;;;;;;;;;;680788;28;1436;-82
2023/12/26 01:21:01;;;;;;;1.45;0.88;;;;;;;;;;682651;29;1279;-81
2023/12/26 01:21:22;;;;;;;1.10;0.77;;;;;;;;;;682901;29;814;-82
2023/12/26 01:21:43;;;;;;;1.40;0.80;;;;;;;;;;681691;29;1261;-82
2023/12/26 01:22:04;;;;;;;1.42;0.80;;;;;;;;;;676894;29;4374;-82
2023/12/26 01:22:24;;;;;;;1.58;0.73;;;;;;;;;;677710;29;1211;-83
2023/12/26 01:22:44;;;;;;;1.70;0.80;;;;;;;;;;680941;29;1143;-83
2023/12/26 01:23:10;;;;;;;1.23;0.70;;;;;;;;;;682246;29;1308;-84
2023/12/26 01:23:31;;;;;;;1.75;0.75;;;;;;;;;;682459;28;1299;-82
2023/12/26 01:23:55;;;;;;;2.35;0.90;;;;;;;;;;680326;29;1203;-82
2023/12/26 01:24:15;;;;;;;2.72;0.90;;;;;;;;;;680321;29;1300;-82
2023/12/26 01:24:39;;;;;;;2.28;0.90;;;;;;;;;;681321;28;888;-83
2023/12/26 01:24:59;;;;;;;1.25;0.52;;;;;;;;;;681254;29;1257;-82
2023/12/26 01:25:19;;;;;;;1.05;0.60;;;;;;;;;;679214;29;4297;-83
2023/12/26 01:25:40;;;;;;;1.97;0.77;;;;;;;;;;679803;29;1312;-83
2023/12/26 01:26:01;;;;;;;2.63;0.98;;;;;;;;;;682015;28;1253;-83
2023/12/26 01:26:25;;;;;;;2.53;1.10;;;;;;;;;;679360;29;1253;-83
2023/12/26 01:26:45;;;;;;;4.00;1.30;;;;;;;;;;678934;29;1278;-83
2023/12/26 01:27:06;;;;;;;3.63;0.80;;;;;;;;;;680161;29;1211;-83
2023/12/26 01:27:30;;;;;;;2.53;0.90;;;;;;;;;;679636;29;1525;-84
2023/12/26 01:27:53;;;;;;;2.28;1.00;;;;;;;;;;676562;29;1240;-82
2023/12/26 01:28:13;;;;;;;2.28;0.90;;;;;;;;;;678745;29;4262;-82
2023/12/26 01:28:37;;;;;;;1.40;0.63;;;;;;;;;;681122;29;1049;-84
2023/12/26 01:28:58;;;;;;;1.50;0.60;;;;;;;;;;679195;29;1283;-82
2023/12/26 01:29:19;;;;;;;2.83;0.77;;;;;;;;;;676748;29;1333;-84
2023/12/26 01:29:40;;;;;;;1.53;0.80;;;;;;;;;;677650;29;1186;-83
2023/12/26 01:30:04;;;;;;;1.27;0.70;;;;;;;;;;675392;29;1450;-83
2023/12/26 01:30:30;;;;;;;0.95;0.70;;;;;;;;;;674332;29;1486;-83
2023/12/26 01:30:50;;;;;;;1.92;0.80;;;;;;;;;;678285;29;1080;-79
2023/12/26 01:31:11;;;;;;;1.45;0.70;;;;;;;;;;674600;29;4495;-83
2023/12/26 01:31:41;;;;;;;1.45;0.70;;;;;;;;;;677876;29;4010;-83
2023/12/26 01:32:01;;;;;;;1.30;0.70;;;;;;;;;;679170;29;909;-82
2023/12/26 01:32:22;;;;;;;1.13;0.63;;;;;;;;;;678072;29;1331;-82
2023/12/26 01:32:42;;;;;;;0.70;0.60;;;;;;;;;;676341;29;1440;-83
2023/12/26 01:33:05;;;;;;;1.00;0.60;;;;;;;;;;679346;29;1254;-82
2023/12/26 01:33:25;;;;;;;1.63;0.80;;;;;;;;;;679112;29;1225;-83
2023/12/26 01:33:46;;;;;;;2.47;1.00;;;;;;;;;;679410;29;1216;-83
2023/12/26 01:34:06;;;;;;;1.70;0.83;;;;;;;;;;676770;29;4386;-82
2023/12/26 01:34:26;;;;;;;1.45;0.80;;;;;;;;;;680716;29;1303;-83
2023/12/26 01:34:48;;;;;;;1.95;0.80;;;;;;;;;;682112;28;1191;-83
2023/12/26 01:35:12;;;;;;;2.30;0.70;;;;;;;;;;682733;28;1383;-83
2023/12/26 01:35:36;;;;;;;2.42;0.80;;;;;;;;;;679465;29;1022;-85
2023/12/26 01:35:58;;;;;;;2.17;0.80;;;;;;;;;;682793;28;2022;-82
2023/12/26 01:36:19;;;;;;;1.13;0.60;;;;;;;;;;682077;29;1543;-83
2023/12/26 01:36:39;;;;;;;2.37;0.60;;;;;;;;;;681673;28;960;-83
2023/12/26 01:37:02;;;;;;;1.20;0.60;;;;;;;;;;681386;29;1205;-82
2023/12/26 01:37:26;;;;;;;1.42;0.65;;;;;;;;;;677758;29;4748;-83
2023/12/26 01:37:47;;;;;;;1.60;0.80;;;;;;;;;;677390;29;1328;-84
2023/12/26 01:38:07;;;;;;;1.07;0.70;;;;;;;;;;680139;29;1394;-83
2023/12/26 01:38:34;;;;;;;0.83;0.63;;;;;;;;;;680066;29;1206;-82
2023/12/26 01:39:06;;;;;;;1.45;0.70;;;;;;;;;;682812;28;1294;-82
2023/12/26 01:39:29;;;;;;;1.65;0.60;;;;;;;;;;678468;29;905;-83
2023/12/26 01:39:49;;;;;;;2.53;0.80;;;;;;;;;;679087;29;909;-83
2023/12/26 01:40:12;;;;;;;2.00;1.00;;;;;;;;;;680238;29;4320;-83
2023/12/26 01:40:40;;;;;;;1.73;0.90;;;;;;;;;;680444;29;1383;-80
2023/12/26 01:41:03;;;;;;;1.23;0.68;;;;;;;;;;682620;29;1365;-82
2023/12/26 01:41:24;;;;;;;1.08;0.65;;;;;;;;;;677865;29;1389;-85
2023/12/26 01:41:46;;;;;;;1.73;0.85;;;;;;;;;;676328;29;989;-81
2023/12/26 01:42:09;;;;;;;2.15;0.80;;;;;;;;;;676476;29;1426;-82
2023/12/26 01:42:29;;;;;;;1.10;0.70;;;;;;;;;;679097;29;1261;-82
2023/12/26 01:42:52;;;;;;;1.65;0.70;;;;;;;;;;681043;28;1331;-82
2023/12/26 01:43:12;;;;;;;1.50;0.80;;;;;;;;;;684284;28;4347;-81
2023/12/26 01:43:33;;;;;;;1.25;0.60;;;;;;;;;;685753;28;944;-82
2023/12/26 01:43:56;;;;;;;1.80;0.60;;;;;;;;;;680551;29;1213;-83
2023/12/26 01:44:20;;;;;;;1.30;0.80;;;;;;;;;;682670;29;1696;-83
2023/12/26 01:44:40;;;;;;;1.77;0.70;;;;;;;;;;680413;28;1163;-83
2023/12/26 01:45:03;;;;;;;2.38;0.70;;;;;;;;;;681993;29;1032;-82
2023/12/26 01:45:24;;;;;;;1.23;0.60;;;;;;;;;;682805;29;1214;-82
2023/12/26 01:45:45;;;;;;;0.60;0.60;;;;;;;;;;683149;28;952;-83
2023/12/26 01:46:15;;;;;;;1.58;0.60;;;;;;;;;;682124;28;4281;-82
2023/12/26 01:46:41;;;;;;;2.72;0.70;;;;;;;;;;680107;29;1445;-83
2023/12/26 01:47:02;;;;;;;1.13;0.68;;;;;;;;;;680956;29;1293;-82
2023/12/26 01:47:22;;;;;;;1.37;0.70;;;;;;;;;;681940;29;1208;-83
2023/12/26 01:47:48;;;;;;;1.20;0.70;;;;;;;;;;676097;29;1553;-83
2023/12/26 01:48:10;;;;;;;1.13;0.60;;;;;;;;;;677564;29;1267;-82
2023/12/26 01:48:30;;;;;;;1.73;0.70;;;;;;;;;;676901;29;1526;-81
2023/12/26 01:48:52;;;;;;;1.63;0.70;;;;;;;;;;678845;29;1294;-80
2023/12/26 01:49:13;;;;;;;1.10;0.70;;;;;;;;;;681297;29;4272;-81
2023/12/26 01:49:40;;;;;;;1.25;0.70;;;;;;;;;;683052;28;1413;-83
2023/12/26 01:50:05;;;;;;;1.90;0.68;;;;;;;;;;685015;28;1379;-83
2023/12/26 01:50:28;;;;;;;2.83;0.73;;;;;;;;;;681079;29;905;-83
2023/12/26 01:50:49;;;;;;;1.00;0.60;;;;;;;;;;680792;29;1130;-83
2023/12/26 01:51:14;;;;;;;1.50;0.70;;;;;;;;;;680268;29;1138;-83
2023/12/26 01:51:45;;;;;;;0.80;0.60;;;;;;;;;;681073;28;1365;-82
2023/12/26 01:52:06;;;;;;;1.40;0.70;;;;;;;;;;678913;29;4377;-82
2023/12/26 01:52:30;;;;;;;1.13;0.63;;;;;;;;;;676006;29;893;-82
2023/12/26 01:52:50;;;;;;;0.63;0.50;;;;;;;;;;677849;29;997;-83
2023/12/26 01:53:11;;;;;;;1.13;0.50;;;;;;;;;;679986;29;1808;-82
2023/12/26 01:53:39;;;;;;;1.00;0.50;;;;;;;;;;680569;29;1455;-84
2023/12/26 01:53:59;;;;;;;1.13;0.50;;;;;;;;;;680028;29;881;-82
2023/12/26 01:54:22;;;;;;;1.63;0.50;;;;;;;;;;681413;28;886;-83
2023/12/26 01:54:44;;;;;;;1.25;0.60;;;;;;;;;;677838;29;1197;-83
2023/12/26 01:55:14;;;;;;;1.13;0.60;;;;;;;;;;668754;29;4251;-85
2023/12/26 01:55:38;;;;;;;1.13;0.60;;;;;;;;;;679717;29;882;-82
2023/12/26 01:56:00;;;;;;;0.93;0.60;;;;;;;;;;684250;28;1340;-83
2023/12/26 01:56:21;;;;;;;2.03;0.60;;;;;;;;;;682539;29;1344;-83
2023/12/26 01:56:42;;;;;;;1.80;0.50;;;;;;;;;;684298;28;1382;-84
2023/12/26 01:57:06;;;;;;;1.27;0.65;;;;;;;;;;683161;28;916;-82
2023/12/26 01:57:27;;;;;;;2.55;0.70;;;;;;;;;;682552;29;1287;-82
2023/12/26 01:57:50;;;;;;;3.28;0.80;;;;;;;;;;681749;28;1269;-83
2023/12/26 01:58:16;;;;;;;1.33;0.60;;;;;;;;;;669658;29;4282;-82
2023/12/26 01:58:38;;;;;;;1.20;0.60;;;;;;;;;;679601;29;1328;-82
2023/12/26 01:59:02;;;;;;;1.60;0.60;;;;;;;;;;682035;29;830;-81
2023/12/26 01:59:23;;;;;;;1.90;0.60;;;;;;;;;;679880;29;1344;-82
2023/12/26 01:59:52;;;;;;;1.50;0.70;;;;;;;;;;680582;29;1423;-83
2023/12/26 02:00:15;;;;;;;1.40;0.60;;;;;;;;;;679549;29;1936;-80
2023/12/26 02:00:41;;;;;;;1.13;0.68;;;;;;;;;;679869;29;1372;-82
2023/12/26 02:01:04;;;;;;;1.70;0.60;;;;;;;;;;678414;29;4262;-81
2023/12/26 02:01:33;;;;;;;2.08;0.60;;;;;;;;;;677695;29;1825;-83
2023/12/26 02:01:58;;;;;;;1.10;0.60;;;;;;;;;;673080;29;1147;-83
2023/12/26 02:02:18;;;;;;;0.80;0.70;;;;;;;;;;676132;29;1407;-84
2023/12/26 02:02:40;;;;;;;1.00;0.60;;;;;;;;;;672250;29;985;-81
2023/12/26 02:03:06;;;;;;;0.70;0.50;;;;;;;;;;677024;29;1475;-83
2023/12/26 02:03:33;;;;;;;1.90;0.60;;;;;;;;;;678071;29;1305;-81
2023/12/26 02:04:06;;;;;;;1.85;0.70;;;;;;;;;;676632;29;1257;-83
2023/12/26 02:04:32;;;;;;;1.50;0.60;;;;;;;;;;680156;29;5019;-84
2023/12/26 02:04:56;;;;;;;1.13;0.60;;;;;;;;;;680879;28;1335;-82
2023/12/26 02:05:17;;;;;;;1.40;0.60;;;;;;;;;;678501;29;1392;-81
2023/12/26 02:06:00;;;;;;;1.90;0.70;;;;;;;;;;676296;29;933;-84
2023/12/26 02:06:22;;;;;;;1.95;0.90;;;;;;;;;;676799;29;1401;-81
2023/12/26 02:06:45;;;;;;;0.90;0.68;;;;;;;;;;681911;29;1375;-84
2023/12/26 02:07:06;;;;;;;1.30;0.60;;;;;;;;;;682088;29;4280;-82
2023/12/26 02:07:31;;;;;;;1.75;0.70;;;;;;;;;;684748;28;1387;-82
2023/12/26 02:07:53;;;;;;;1.40;0.50;;;;;;;;;;676636;29;1958;-82
2023/12/26 02:08:23;;;;;;;1.30;0.50;;;;;;;;;;677970;29;1367;-83
2023/12/26 02:08:48;;;;;;;1.45;0.73;;;;;;;;;;678562;29;1409;-82
2023/12/26 02:09:11;;;;;;;1.10;0.70;;;;;;;;;;682513;29;1280;-83
2023/12/26 02:09:32;;;;;;;1.20;0.50;;;;;;;;;;683047;28;941;-83
2023/12/26 02:09:55;;;;;;;1.55;0.70;;;;;;;;;;681992;28;1458;-83
2023/12/26 02:10:21;;;;;;;0.65;0.60;;;;;;;;;;683433;28;4311;-82
2023/12/26 02:10:43;;;;;;;1.45;0.60;;;;;;;;;;676671;29;1391;-81
2023/12/26 02:11:09;;;;;;;2.10;0.60;;;;;;;;;;679152;29;1242;-84
2023/12/26 02:11:33;;;;;;;2.45;0.68;;;;;;;;;;679528;29;854;-82
2023/12/26 02:11:54;;;;;;;2.35;0.73;;;;;;;;;;684021;28;1288;-83
2023/12/26 02:12:16;;;;;;;2.08;0.80;;;;;;;;;;679869;29;1396;-84
2023/12/26 02:12:58;;;;;;;1.92;0.70;;;;;;;;;;680381;29;1278;-83
2023/12/26 02:13:21;;;;;;;1.42;0.65;;;;;;;;;;676873;29;4251;-84
2023/12/26 02:13:50;;;;;;;1.15;0.70;;;;;;;;;;678655;29;1382;-83
2023/12/26 02:14:16;;;;;;;2.50;0.73;;;;;;;;;;679801;29;1387;-84
2023/12/26 02:14:36;;;;;;;4.28;0.80;;;;;;;;;;679766;29;1379;-83
2023/12/26 02:14:59;;;;;;;1.90;0.70;;;;;;;;;;676360;29;1504;-82
2023/12/26 02:15:20;;;;;;;2.05;0.70;;;;;;;;;;676017;29;801;-82
2023/12/26 02:15:45;;;;;;;1.42;0.70;;;;;;;;;;675382;29;1222;-81
2023/12/26 02:16:26;;;;;;;1.05;0.60;;;;;;;;;;669977;29;4498;-82
2023/12/26 02:16:51;;;;;;;1.92;0.60;;;;;;;;;;680732;28;1371;-84
2023/12/26 02:17:18;;;;;;;1.70;0.60;;;;;;;;;;679463;29;1371;-83
2023/12/26 02:17:45;;;;;;;1.60;0.70;;;;;;;;;;678917;29;1584;-84
2023/12/26 02:18:15;;;;;;;1.52;0.63;;;;;;;;;;678989;29;1186;-83
2023/12/26 02:18:36;;;;;;;2.42;0.70;;;;;;;;;;681027;29;1349;-83
2023/12/26 02:19:16;;;;;;;1.55;0.70;;;;;;;;;;677617;29;4270;-83
2023/12/26 02:19:40;;;;;;;1.35;0.65;;;;;;;;;;679458;29;1311;-83
2023/12/26 02:20:01;;;;;;;2.25;0.80;;;;;;;;;;681787;29;1247;-83
2023/12/26 02:20:21;;;;;;;2.13;0.60;;;;;;;;;;677991;29;1994;-84
2023/12/26 02:20:52;;;;;;;2.10;0.70;;;;;;;;;;681314;29;1388;-84
2023/12/26 02:21:12;;;;;;;0.73;0.57;;;;;;;;;;681179;28;1130;-83
2023/12/26 02:21:33;;;;;;;0.88;0.60;;;;;;;;;;680033;29;1191;-83
2023/12/26 02:21:56;;;;;;;1.40;0.60;;;;;;;;;;681009;29;1347;-84
2023/12/26 02:22:16;;;;;;;1.88;0.70;;;;;;;;;;681205;29;4273;-83